アテネ の空港の天気 - METARとTAF

アテネ国際空港 ( LGAV / ATH ) - ギリシャ アテネ
飛行場実況気象(Metar)
観測時間10/28 17:50 EET (10/28 15:50 UTC)
風向・風速東 3m/s
視程10km以上
天気現象弱い霧雨
少しの雲 雲底高度 550m
全天の4割程度の雲 雲底高度 760m
気温16℃
湿度94%
気圧1009hPa
METARLGAV 281550Z 10005KT 9999 -DZ FEW018 SCT025 16/15 Q1009 NOSIG
過去の天気等 Google飛行場航空写真 Wunderground天気予報

過去48時間のMETAR

飛行場予報(TAF)
発表時間: 10/28 13:00 EET (10/28 11:00 UTC)
予報対象時間: 28日14時 EET ~ 29日14時 EET
風向・風速南 8m/s
視程10km以上
全天の8割程度の雲 雲底高度 610m
全天の8割程度の雲 雲底高度 2130m
28日14時 EET ~ 28日23時 EET に一時的に
視程5000m
天気現象
少しの雲 雲底高度 300m
少しの塔状積雲 雲底高度 550m
全天の8割程度の雲 雲底高度 610m
28日14時 EET ~ 28日16時 EET に 確率 40% で一時的に
視程3000m
天気現象雷雨
全天の4割程度の雲 雲底高度 300m
少しの積乱雲 雲底高度 550m
全天の8割程度の雲 雲底高度 610m
全天の8割程度の雲 雲底高度 2130m
28日18時 EET ~ 28日20時 EET に徐々に
風向・風速不定 3m/s
29日6時 EET ~ 29日8時 EET に徐々に
風向・風速北北西 6m/s
全天の4割程度の雲 雲底高度 760m
TAF LGAV 281100Z 2812/2912 17015KT 9999 BKN020 BKN070
TEMPO 2812/2821 5000 RA FEW010 FEW018TCU BKN020
PROB40 TEMPO 2812/2814 3000 TSRA SCT010 FEW018CB BKN020 BKN070
BECMG 2816/2818 VRB05KT
BECMG 2904/2906 34012KT SCT025